Time;durP1;ratioP1;P1;durP2;ratioP2;P2;SDS_P1;SDS_P2;PMS_P1;PMS_P2;Temp;Humidity;BMP_temperature;BMP_pressure;BME280_temperature;BME280_humidity;BME280_pressure;Samples;Min_cycle;Max_cycle;Signal;HPM_P1;HPM_P2
2022/08/08 00:01:43;;;;;;;2.10;0.82;;;;;;;;;;5022333;28;20031;-70
2022/08/08 00:04:21;;;;;;;1.73;1.10;;;;;;;;;;5035911;28;20029;-70
2022/08/08 00:06:56;;;;;;;1.00;0.90;;;;;;;;;;5048806;28;20392;-70
2022/08/08 00:09:38;;;;;;;2.97;1.10;;;;;;;;;;5048565;28;20083;-70
2022/08/08 00:12:09;;;;;;;2.45;1.00;;;;;;;;;;5035373;28;20035;-70
2022/08/08 00:14:46;;;;;;;1.20;0.98;;;;;;;;;;5011701;28;20025;-70
2022/08/08 00:17:33;;;;;;;1.02;0.90;;;;;;;;;;5028704;28;20029;-70
2022/08/08 00:20:01;;;;;;;1.60;1.13;;;;;;;;;;5027194;28;20061;-70
2022/08/08 00:22:30;;;;;;;1.80;1.00;;;;;;;;;;5030021;28;20126;-70
2022/08/08 00:25:03;;;;;;;1.00;0.90;;;;;;;;;;5043518;28;20132;-70
2022/08/08 00:27:30;;;;;;;1.50;1.05;;;;;;;;;;5028590;28;20036;-70
2022/08/08 00:30:00;;;;;;;2.80;1.15;;;;;;;;;;5028169;28;20033;-70
2022/08/08 00:32:45;;;;;;;0.90;0.90;;;;;;;;;;5029913;28;20048;-70
2022/08/08 00:35:22;;;;;;;1.15;0.95;;;;;;;;;;5035505;28;20123;-70
2022/08/08 00:38:06;;;;;;;1.00;0.90;;;;;;;;;;5025081;28;20025;-70
2022/08/08 00:40:46;;;;;;;1.35;1.10;;;;;;;;;;5019423;28;20119;-70
2022/08/08 00:43:48;;;;;;;1.05;1.00;;;;;;;;;;5034941;28;20072;-70
2022/08/08 00:46:33;;;;;;;2.28;1.02;;;;;;;;;;5035280;28;20459;-70
2022/08/08 00:49:10;;;;;;;4.00;1.10;;;;;;;;;;5023665;28;20072;-70
2022/08/08 00:52:15;;;;;;;1.20;1.00;;;;;;;;;;5020645;28;20025;-70
2022/08/08 00:55:09;;;;;;;1.42;1.00;;;;;;;;;;5029248;28;20034;-70
2022/08/08 00:57:40;;;;;;;1.10;1.00;;;;;;;;;;5025873;28;20116;-70
2022/08/08 01:00:16;;;;;;;2.10;0.98;;;;;;;;;;5027997;28;20497;-71
2022/08/08 01:03:05;;;;;;;1.42;0.90;;;;;;;;;;5031655;28;20025;-70
2022/08/08 01:05:37;;;;;;;2.03;1.05;;;;;;;;;;5021267;28;20041;-70
2022/08/08 01:08:51;;;;;;;1.60;1.10;;;;;;;;;;5038384;28;20036;-70
2022/08/08 01:12:01;;;;;;;1.10;1.00;;;;;;;;;;5024902;28;20025;-70
2022/08/08 01:14:45;;;;;;;1.35;1.10;;;;;;;;;;5037829;28;20051;-70
2022/08/08 01:17:29;;;;;;;2.00;0.98;;;;;;;;;;5024112;28;20394;-70
2022/08/08 01:20:32;;;;;;;1.50;1.00;;;;;;;;;;5030595;28;20029;-70
2022/08/08 01:23:16;;;;;;;1.65;1.15;;;;;;;;;;5032451;28;20027;-71
2022/08/08 01:25:59;;;;;;;1.15;1.05;;;;;;;;;;5037782;28;20064;-70
2022/08/08 01:28:52;;;;;;;1.10;1.00;;;;;;;;;;5051692;28;20025;-70
2022/08/08 01:31:55;;;;;;;1.27;1.00;;;;;;;;;;5042137;28;20036;-70
2022/08/08 01:34:23;;;;;;;1.83;1.20;;;;;;;;;;5041660;28;20482;-70
2022/08/08 01:37:12;;;;;;;2.60;1.08;;;;;;;;;;5031385;28;20041;-70
2022/08/08 01:40:01;;;;;;;2.60;1.23;;;;;;;;;;5036862;28;20160;-70
2022/08/08 01:42:40;;;;;;;0.93;0.90;;;;;;;;;;5031716;28;20398;-70
2022/08/08 01:45:31;;;;;;;1.80;1.08;;;;;;;;;;5042920;28;20086;-70
2022/08/08 01:48:15;;;;;;;2.25;1.10;;;;;;;;;;5051353;28;20200;-70
2022/08/08 01:51:02;;;;;;;3.28;1.50;;;;;;;;;;5035001;28;20136;-70
2022/08/08 01:53:59;;;;;;;1.90;1.00;;;;;;;;;;5038263;28;20026;-69
2022/08/08 01:57:03;;;;;;;1.58;1.27;;;;;;;;;;5050031;28;20021;-70
2022/08/08 01:59:53;;;;;;;2.35;1.20;;;;;;;;;;5050991;28;20072;-70
2022/08/08 02:02:43;;;;;;;3.30;1.60;;;;;;;;;;5040099;28;20029;-70
2022/08/08 02:05:26;;;;;;;2.30;1.38;;;;;;;;;;5032316;28;20029;-69
2022/08/08 02:08:09;;;;;;;;;;;;;;;;;;5051518;28;20032;-70
2022/08/08 02:10:59;;;;;;;3.80;2.00;;;;;;;;;;5050676;28;19912;-69
2022/08/08 02:13:55;;;;;;;3.67;1.55;;;;;;;;;;5040077;28;20249;-69
2022/08/08 02:16:27;;;;;;;1.83;1.02;;;;;;;;;;5038856;28;20395;-70
2022/08/08 02:19:10;;;;;;;2.10;1.23;;;;;;;;;;5030832;28;20033;-70
2022/08/08 02:24:49;;;;;;;2.53;1.10;;;;;;;;;;5041994;28;20156;-69
2022/08/08 02:27:23;;;;;;;2.28;0.95;;;;;;;;;;5027050;28;20546;-70
2022/08/08 02:29:54;;;;;;;2.75;1.30;;;;;;;;;;5030723;28;20040;-69
2022/08/08 02:32:43;;;;;;;1.45;1.17;;;;;;;;;;5031400;28;20033;-70
2022/08/08 02:35:24;;;;;;;1.65;1.17;;;;;;;;;;5036070;28;20438;-69
2022/08/08 02:38:20;;;;;;;1.30;1.20;;;;;;;;;;5030446;28;20025;-70
2022/08/08 02:41:10;;;;;;;3.67;1.40;;;;;;;;;;5028741;28;20028;-70
2022/08/08 02:44:33;;;;;;;1.73;1.17;;;;;;;;;;5037345;28;20033;-70
2022/08/08 02:47:29;;;;;;;1.48;1.00;;;;;;;;;;4946550;29;20031;-70
2022/08/08 02:50:28;;;;;;;2.38;1.30;;;;;;;;;;4930134;29;20070;-70
2022/08/08 02:53:12;;;;;;;2.60;1.45;;;;;;;;;;5004768;28;20046;-70
2022/08/08 02:55:46;;;;;;;1.70;1.20;;;;;;;;;;5030743;28;20013;-69
2022/08/08 02:58:59;;;;;;;2.72;1.30;;;;;;;;;;5029043;28;20478;-69
2022/08/08 03:01:40;;;;;;;2.15;1.10;;;;;;;;;;5029669;28;20029;-69
2022/08/08 03:04:42;;;;;;;1.58;1.30;;;;;;;;;;5034730;28;20041;-70
2022/08/08 03:07:14;;;;;;;1.30;1.20;;;;;;;;;;5010148;28;20056;-69
2022/08/08 03:10:13;;;;;;;2.08;1.20;;;;;;;;;;5016578;28;20033;-69
2022/08/08 03:13:00;;;;;;;2.40;1.20;;;;;;;;;;5025944;28;20124;-70
2022/08/08 03:15:34;;;;;;;1.70;1.30;;;;;;;;;;5041509;28;20373;-69
2022/08/08 03:18:08;;;;;;;1.65;1.30;;;;;;;;;;5040041;28;20033;-70
2022/08/08 03:20:44;;;;;;;1.17;1.10;;;;;;;;;;4996560;28;20021;-69
2022/08/08 03:23:09;;;;;;;3.47;1.50;;;;;;;;;;5032065;28;20034;-69
2022/08/08 03:25:35;;;;;;;3.40;1.75;;;;;;;;;;5041319;28;20493;-69
2022/08/08 03:28:09;;;;;;;2.15;1.50;;;;;;;;;;5028732;28;20076;-70
2022/08/08 03:30:34;;;;;;;3.00;1.30;;;;;;;;;;5029562;28;20053;-69
2022/08/08 03:33:17;;;;;;;2.75;1.30;;;;;;;;;;5028055;28;20145;-70
2022/08/08 03:35:45;;;;;;;2.08;1.33;;;;;;;;;;5031033;28;20061;-69
2022/08/08 03:38:10;;;;;;;1.33;1.20;;;;;;;;;;5029121;28;20475;-69
2022/08/08 03:40:35;;;;;;;1.30;1.20;;;;;;;;;;5027857;28;20087;-69
2022/08/08 03:43:02;;;;;;;1.73;1.20;;;;;;;;;;5028279;28;20033;-70
2022/08/08 03:45:28;;;;;;;1.88;1.20;;;;;;;;;;5030081;28;20021;-69
2022/08/08 03:48:01;;;;;;;2.45;1.20;;;;;;;;;;5049225;28;20032;-70
2022/08/08 03:50:28;;;;;;;1.40;1.30;;;;;;;;;;5048924;28;20029;-69
2022/08/08 03:52:54;;;;;;;1.75;1.30;;;;;;;;;;5033367;28;20072;-70
2022/08/08 03:55:20;;;;;;;4.35;1.60;;;;;;;;;;5044946;28;20060;-69
2022/08/08 03:57:48;;;;;;;1.70;1.10;;;;;;;;;;5029109;28;20102;-70
2022/08/08 04:00:15;;;;;;;1.10;1.00;;;;;;;;;;5027952;28;20029;-70
2022/08/08 04:02:41;;;;;;;3.47;1.10;;;;;;;;;;5028936;28;20111;-70
2022/08/08 04:05:07;;;;;;;1.40;1.30;;;;;;;;;;5026571;28;20100;-70
2022/08/08 04:07:37;;;;;;;3.95;1.40;;;;;;;;;;5036767;28;20387;-69
2022/08/08 04:10:03;;;;;;;1.80;1.30;;;;;;;;;;5028517;28;20068;-70
2022/08/08 04:12:29;;;;;;;1.60;1.50;;;;;;;;;;5028023;28;20534;-69
2022/08/08 04:14:54;;;;;;;1.48;1.38;;;;;;;;;;5040512;28;20036;-70
2022/08/08 04:17:20;;;;;;;2.65;1.30;;;;;;;;;;5035292;28;20549;-70
2022/08/08 04:19:45;;;;;;;2.05;1.45;;;;;;;;;;5028443;28;20029;-69
2022/08/08 04:22:10;;;;;;;2.22;1.60;;;;;;;;;;5028752;28;20029;-70
2022/08/08 04:24:35;;;;;;;2.63;1.38;;;;;;;;;;5035470;28;20539;-70
2022/08/08 04:27:02;;;;;;;3.25;1.75;;;;;;;;;;5044058;28;20037;-70
2022/08/08 04:29:27;;;;;;;1.77;1.60;;;;;;;;;;5029230;28;20039;-69
2022/08/08 04:31:53;;;;;;;1.83;1.42;;;;;;;;;;5028425;28;20036;-70
2022/08/08 04:34:18;;;;;;;2.83;1.50;;;;;;;;;;5021324;28;20527;-70
2022/08/08 04:36:43;;;;;;;2.53;1.67;;;;;;;;;;5039850;28;20483;-69
2022/08/08 04:39:08;;;;;;;2.95;1.50;;;;;;;;;;5048417;28;20040;-70
2022/08/08 04:41:34;;;;;;;2.15;1.58;;;;;;;;;;5013520;28;20029;-70
2022/08/08 04:43:59;;;;;;;2.65;1.58;;;;;;;;;;5027183;28;20367;-69
2022/08/08 04:46:24;;;;;;;1.77;1.50;;;;;;;;;;5038957;28;20036;-70
2022/08/08 04:48:50;;;;;;;2.80;1.45;;;;;;;;;;5033416;28;20491;-69
2022/08/08 04:51:15;;;;;;;3.90;1.73;;;;;;;;;;5027038;28;20036;-70
2022/08/08 04:53:40;;;;;;;4.25;1.70;;;;;;;;;;5023750;28;20071;-69
2022/08/08 04:56:06;;;;;;;3.63;1.45;;;;;;;;;;5024297;28;20041;-69
2022/08/08 04:58:32;;;;;;;2.00;1.50;;;;;;;;;;5025389;28;20406;-69
2022/08/08 05:00:57;;;;;;;2.35;1.65;;;;;;;;;;5018375;28;20033;-70
2022/08/08 05:03:22;;;;;;;2.78;1.80;;;;;;;;;;5025778;28;20042;-69
2022/08/08 05:05:48;;;;;;;4.45;1.88;;;;;;;;;;5033456;28;20170;-70
2022/08/08 05:08:13;;;;;;;2.35;1.40;;;;;;;;;;5033393;28;21344;-69
2022/08/08 05:10:38;;;;;;;3.05;1.50;;;;;;;;;;5027514;28;20026;-71
2022/08/08 05:13:04;;;;;;;3.00;1.50;;;;;;;;;;5027063;28;20030;-70
2022/08/08 05:15:29;;;;;;;2.50;1.73;;;;;;;;;;5039463;28;20028;-70
2022/08/08 05:17:55;;;;;;;2.90;1.60;;;;;;;;;;5035178;28;20033;-71
2022/08/08 05:20:20;;;;;;;4.88;1.60;;;;;;;;;;5036484;28;20033;-70
2022/08/08 05:22:46;;;;;;;4.93;2.00;;;;;;;;;;5028234;28;20032;-69
2022/08/08 05:25:12;;;;;;;1.75;1.60;;;;;;;;;;5032350;28;20411;-69
2022/08/08 05:27:37;;;;;;;2.38;1.90;;;;;;;;;;5039808;28;20029;-70
2022/08/08 05:30:03;;;;;;;4.38;1.77;;;;;;;;;;5042156;28;20087;-71
2022/08/08 05:32:29;;;;;;;4.40;1.80;;;;;;;;;;5027725;28;20368;-70
2022/08/08 05:34:58;;;;;;;2.55;1.75;;;;;;;;;;5034718;28;20025;-71
2022/08/08 05:37:25;;;;;;;3.30;1.75;;;;;;;;;;5039929;28;20079;-71
2022/08/08 05:39:53;;;;;;;1.58;1.40;;;;;;;;;;5042332;28;20079;-70
2022/08/08 05:42:25;;;;;;;1.90;1.60;;;;;;;;;;5027715;28;20063;-70
2022/08/08 05:44:50;;;;;;;3.22;1.80;;;;;;;;;;5031810;28;20036;-71
2022/08/08 05:47:17;;;;;;;2.00;1.60;;;;;;;;;;5029782;28;20045;-71
2022/08/08 05:49:46;;;;;;;1.75;1.25;;;;;;;;;;5025658;28;20430;-71
2022/08/08 05:52:12;;;;;;;2.13;1.40;;;;;;;;;;5026921;28;20418;-72
2022/08/08 05:54:38;;;;;;;2.55;1.33;;;;;;;;;;5019448;28;20038;-71
2022/08/08 05:57:12;;;;;;;2.00;1.35;;;;;;;;;;5019515;28;20060;-72
2022/08/08 05:59:42;;;;;;;2.85;1.65;;;;;;;;;;5032786;28;20047;-71
2022/08/08 06:03:09;;;;;;;1.65;1.23;;;;;;;;;;5032741;28;20554;-71
2022/08/08 06:05:07;;;;;;;1.35;1.25;;;;;;;;;;5050221;28;20037;-71
2022/08/08 06:07:33;;;;;;;2.55;1.83;;;;;;;;;;5029871;28;20503;-70
2022/08/08 06:10:01;;;;;;;1.50;1.33;;;;;;;;;;5030711;28;20554;-71
2022/08/08 06:12:27;;;;;;;1.52;1.40;;;;;;;;;;5030121;28;20038;-70
2022/08/08 06:14:53;;;;;;;1.45;1.27;;;;;;;;;;5030825;28;20125;-71
2022/08/08 06:17:21;;;;;;;1.40;1.30;;;;;;;;;;5029551;28;20026;-70
2022/08/08 06:19:47;;;;;;;3.55;1.95;;;;;;;;;;5006778;28;20536;-71
2022/08/08 06:22:12;;;;;;;1.30;1.20;;;;;;;;;;5026285;28;20334;-70
2022/08/08 06:24:37;;;;;;;1.30;1.20;;;;;;;;;;5026415;28;20384;-70
2022/08/08 06:27:03;;;;;;;2.10;1.20;;;;;;;;;;5026436;28;20042;-71
2022/08/08 06:29:38;;;;;;;1.63;1.17;;;;;;;;;;5026559;28;20506;-72
2022/08/08 06:32:08;;;;;;;1.73;1.10;;;;;;;;;;5032844;28;20056;-71
2022/08/08 06:34:36;;;;;;;2.45;1.20;;;;;;;;;;5031328;28;20039;-71
2022/08/08 06:37:03;;;;;;;2.45;1.08;;;;;;;;;;5030953;28;20029;-71
2022/08/08 06:39:29;;;;;;;2.33;1.33;;;;;;;;;;5025176;28;20105;-72
2022/08/08 06:41:56;;;;;;;2.50;1.33;;;;;;;;;;5019292;28;20036;-72
2022/08/08 06:44:23;;;;;;;3.15;1.38;;;;;;;;;;5032265;28;20033;-71
2022/08/08 06:46:49;;;;;;;2.10;1.20;;;;;;;;;;5026608;28;20144;-71
2022/08/08 06:49:14;;;;;;;2.50;1.10;;;;;;;;;;5030588;28;20393;-70
2022/08/08 06:51:40;;;;;;;2.03;1.00;;;;;;;;;;5029365;28;20065;-71
2022/08/08 06:54:07;;;;;;;3.25;0.98;;;;;;;;;;5025578;28;20029;-70
2022/08/08 06:56:34;;;;;;;2.28;0.80;;;;;;;;;;5031426;28;20035;-71
2022/08/08 06:58:59;;;;;;;3.80;0.98;;;;;;;;;;5015851;28;20565;-74
2022/08/08 07:01:28;;;;;;;3.58;1.20;;;;;;;;;;5012186;28;20029;-74
2022/08/08 07:03:59;;;;;;;4.55;1.17;;;;;;;;;;5011161;28;20140;-74
2022/08/08 07:06:28;;;;;;;1.70;1.00;;;;;;;;;;5018168;28;20303;-72
2022/08/08 07:09:01;;;;;;;5.07;1.08;;;;;;;;;;5028019;28;20033;-71
2022/08/08 07:11:29;;;;;;;6.07;1.05;;;;;;;;;;5016015;28;20033;-72
2022/08/08 07:13:59;;;;;;;2.55;1.00;;;;;;;;;;5022220;28;20083;-72
2022/08/08 07:17:00;;;;;;;4.97;1.10;;;;;;;;;;5023376;28;20064;-71
2022/08/08 07:20:02;;;;;;;1.60;0.90;;;;;;;;;;5033692;28;20033;-71
2022/08/08 07:22:41;;;;;;;6.95;1.10;;;;;;;;;;5034553;28;20036;-73
2022/08/08 07:25:09;;;;;;;4.25;0.98;;;;;;;;;;5025688;28;20029;-70
2022/08/08 07:27:39;;;;;;;5.85;1.10;;;;;;;;;;5021046;28;20035;-71
2022/08/08 07:30:06;;;;;;;2.92;0.93;;;;;;;;;;5022861;28;20087;-71
2022/08/08 07:32:31;;;;;;;3.22;1.10;;;;;;;;;;5014025;28;20281;-71
2022/08/08 07:34:58;;;;;;;3.55;1.08;;;;;;;;;;5021981;28;20029;-69
2022/08/08 07:37:25;;;;;;;2.20;0.80;;;;;;;;;;5015365;28;20177;-74
2022/08/08 07:39:51;;;;;;;3.15;1.00;;;;;;;;;;5012605;28;20243;-72
2022/08/08 07:42:19;;;;;;;4.57;1.17;;;;;;;;;;5034008;28;20057;-70
2022/08/08 07:44:46;;;;;;;1.92;0.90;;;;;;;;;;5032532;28;20040;-73
2022/08/08 07:47:11;;;;;;;2.42;0.80;;;;;;;;;;5027951;28;20541;-72
2022/08/08 07:49:38;;;;;;;2.17;0.80;;;;;;;;;;5020167;28;20030;-73
2022/08/08 07:52:05;;;;;;;2.70;0.98;;;;;;;;;;5020444;28;20441;-71
2022/08/08 07:54:39;;;;;;;2.00;1.15;;;;;;;;;;5033408;28;20025;-70
2022/08/08 07:57:11;;;;;;;0.98;0.80;;;;;;;;;;5016439;28;20040;-71
2022/08/08 07:59:56;;;;;;;1.92;1.00;;;;;;;;;;5005871;28;20164;-71
2022/08/08 08:02:24;;;;;;;3.80;0.90;;;;;;;;;;5019061;28;20026;-71
2022/08/08 08:04:58;;;;;;;2.13;1.10;;;;;;;;;;5017548;28;20060;-71
2022/08/08 08:07:25;;;;;;;2.28;1.10;;;;;;;;;;5031918;28;20084;-73
2022/08/08 08:09:50;;;;;;;1.65;0.90;;;;;;;;;;5042280;28;20025;-73
2022/08/08 08:12:19;;;;;;;1.83;0.70;;;;;;;;;;5039625;28;20437;-72
2022/08/08 08:14:53;;;;;;;2.65;1.23;;;;;;;;;;5017623;28;20038;-70
2022/08/08 08:17:19;;;;;;;3.60;1.00;;;;;;;;;;5022131;28;20036;-72
2022/08/08 08:19:48;;;;;;;2.80;0.77;;;;;;;;;;5022482;28;20029;-74
2022/08/08 08:22:14;;;;;;;1.77;0.90;;;;;;;;;;5027989;28;20376;-72
2022/08/08 08:24:42;;;;;;;1.88;0.80;;;;;;;;;;5016380;28;20041;-73
2022/08/08 08:27:08;;;;;;;4.55;0.88;;;;;;;;;;5019906;28;20021;-72
2022/08/08 08:29:33;;;;;;;1.63;0.77;;;;;;;;;;5016584;28;20115;-72
2022/08/08 08:31:58;;;;;;;5.85;0.88;;;;;;;;;;5012540;28;20271;-74
2022/08/08 08:34:24;;;;;;;2.08;0.70;;;;;;;;;;5020037;28;20034;-73
2022/08/08 08:36:49;;;;;;;1.98;0.90;;;;;;;;;;5017638;28;20037;-72
2022/08/08 08:39:15;;;;;;;1.93;0.83;;;;;;;;;;5017791;28;20482;-72
2022/08/08 08:41:41;;;;;;;2.70;0.73;;;;;;;;;;5037138;28;20039;-73
2022/08/08 08:44:09;;;;;;;1.67;0.80;;;;;;;;;;5041172;28;20040;-71
2022/08/08 08:46:36;;;;;;;6.88;0.90;;;;;;;;;;5025903;28;20509;-72
2022/08/08 08:49:01;;;;;;;1.65;0.70;;;;;;;;;;5018990;28;20045;-74
2022/08/08 08:51:27;;;;;;;2.13;0.73;;;;;;;;;;5016238;28;20028;-72
2022/08/08 08:53:54;;;;;;;1.08;0.60;;;;;;;;;;5016482;28;20039;-71
2022/08/08 08:56:22;;;;;;;5.60;1.00;;;;;;;;;;5020821;28;20021;-72
2022/08/08 08:58:49;;;;;;;2.42;0.60;;;;;;;;;;5021964;28;20420;-74
2022/08/08 09:01:19;;;;;;;3.00;0.80;;;;;;;;;;5021130;28;20076;-72
2022/08/08 09:03:46;;;;;;;3.88;0.90;;;;;;;;;;5017266;28;20567;-74
2022/08/08 09:06:21;;;;;;;2.67;0.80;;;;;;;;;;5014808;28;20028;-72
2022/08/08 09:09:00;;;;;;;2.03;0.60;;;;;;;;;;5018404;28;20120;-73
2022/08/08 09:11:27;;;;;;;2.83;0.68;;;;;;;;;;5029655;28;20121;-72
2022/08/08 09:13:53;;;;;;;0.82;0.70;;;;;;;;;;5014389;28;20452;-73
2022/08/08 09:16:18;;;;;;;1.23;0.80;;;;;;;;;;5020297;28;20057;-73
2022/08/08 09:18:45;;;;;;;2.33;0.70;;;;;;;;;;5018154;28;20112;-71
2022/08/08 09:21:11;;;;;;;2.90;0.88;;;;;;;;;;5021887;28;20017;-72
2022/08/08 09:23:37;;;;;;;1.95;1.00;;;;;;;;;;5018878;28;20024;-73
2022/08/08 09:26:10;;;;;;;1.13;0.70;;;;;;;;;;5023504;28;21654;-73
2022/08/08 09:28:38;;;;;;;1.75;0.60;;;;;;;;;;5016708;28;20091;-72
2022/08/08 09:31:13;;;;;;;0.90;0.68;;;;;;;;;;5020741;28;20037;-73
2022/08/08 09:33:41;;;;;;;2.15;0.80;;;;;;;;;;5011102;28;20044;-72
2022/08/08 09:36:12;;;;;;;2.17;0.60;;;;;;;;;;5005471;28;20034;-72
2022/08/08 09:38:52;;;;;;;2.53;0.70;;;;;;;;;;5029736;28;20398;-72
2022/08/08 09:41:27;;;;;;;2.83;0.80;;;;;;;;;;5008032;28;20025;-73
2022/08/08 09:44:01;;;;;;;1.58;0.63;;;;;;;;;;5025112;28;20083;-73
2022/08/08 09:46:28;;;;;;;2.70;0.68;;;;;;;;;;5019338;28;20033;-74
2022/08/08 09:48:56;;;;;;;0.90;0.70;;;;;;;;;;5012510;28;20055;-72
2022/08/08 09:51:28;;;;;;;3.80;0.60;;;;;;;;;;5034184;28;20067;-70
2022/08/08 09:54:00;;;;;;;2.00;0.60;;;;;;;;;;5044848;28;20021;-74
2022/08/08 09:56:32;;;;;;;2.15;0.60;;;;;;;;;;5044607;28;20433;-73
2022/08/08 09:59:03;;;;;;;0.73;0.60;;;;;;;;;;5044424;28;20095;-74
2022/08/08 10:01:33;;;;;;;2.60;0.85;;;;;;;;;;5009903;28;20025;-72
2022/08/08 10:04:00;;;;;;;3.83;0.70;;;;;;;;;;5022462;28;20034;-73
2022/08/08 10:06:25;;;;;;;0.50;0.50;;;;;;;;;;5017544;28;20263;-73
2022/08/08 10:08:52;;;;;;;1.67;0.60;;;;;;;;;;5019275;28;20029;-74
2022/08/08 10:11:18;;;;;;;2.40;0.60;;;;;;;;;;5008102;28;20476;-73
2022/08/08 10:13:55;;;;;;;3.47;0.68;;;;;;;;;;5019696;28;20087;-74
2022/08/08 10:16:21;;;;;;;1.92;0.70;;;;;;;;;;5029492;28;20465;-74
2022/08/08 10:18:47;;;;;;;1.65;0.80;;;;;;;;;;5034757;28;20060;-73
2022/08/08 10:21:16;;;;;;;2.88;0.73;;;;;;;;;;5020257;28;20163;-74
2022/08/08 10:23:43;;;;;;;3.92;0.70;;;;;;;;;;5004139;28;20100;-72
2022/08/08 10:26:19;;;;;;;3.33;0.60;;;;;;;;;;5010479;28;20029;-73
2022/08/08 10:28:54;;;;;;;1.17;0.73;;;;;;;;;;5021569;28;20029;-75
2022/08/08 10:34:12;;;;;;;3.10;0.60;;;;;;;;;;5039998;28;20051;-73
2022/08/08 10:36:40;;;;;;;2.70;0.77;;;;;;;;;;5036431;28;20040;-70
2022/08/08 10:39:07;;;;;;;1.48;0.57;;;;;;;;;;5012825;28;20112;-74
2022/08/08 10:41:36;;;;;;;1.98;0.80;;;;;;;;;;5009661;28;20073;-79
2022/08/08 10:44:02;;;;;;;1.33;0.60;;;;;;;;;;5023635;28;20028;-72
2022/08/08 10:46:30;;;;;;;1.55;0.65;;;;;;;;;;5021058;28;20094;-74
2022/08/08 10:48:56;;;;;;;1.30;0.75;;;;;;;;;;5025392;28;20154;-75
2022/08/08 10:51:23;;;;;;;1.92;0.60;;;;;;;;;;5019860;28;20052;-71
2022/08/08 10:53:51;;;;;;;1.08;0.65;;;;;;;;;;5042807;28;20124;-72
2022/08/08 10:56:17;;;;;;;3.30;0.70;;;;;;;;;;5044014;28;20653;-72
2022/08/08 10:58:43;;;;;;;1.35;0.70;;;;;;;;;;5043202;28;20128;-73
2022/08/08 11:01:10;;;;;;;1.52;0.80;;;;;;;;;;5014296;28;20034;-76
2022/08/08 11:03:42;;;;;;;4.10;0.68;;;;;;;;;;5024065;28;20043;-73
2022/08/08 11:06:09;;;;;;;2.97;0.90;;;;;;;;;;5056159;23;20072;-72
2022/08/08 11:08:35;;;;;;;2.33;0.60;;;;;;;;;;5034579;28;20250;-71
2022/08/08 11:11:08;;;;;;;0.85;0.70;;;;;;;;;;5043136;28;20021;-72
2022/08/08 11:13:44;;;;;;;2.63;0.88;;;;;;;;;;5046085;28;20035;-73
2022/08/08 11:16:21;;;;;;;2.58;0.63;;;;;;;;;;5038169;28;20021;-73
2022/08/08 11:18:48;;;;;;;2.42;0.80;;;;;;;;;;5018540;28;20083;-72
2022/08/08 11:21:14;;;;;;;2.67;0.70;;;;;;;;;;5022397;28;20056;-72
2022/08/08 11:23:41;;;;;;;1.88;0.55;;;;;;;;;;5023159;28;20069;-74
2022/08/08 11:26:16;;;;;;;2.38;0.75;;;;;;;;;;5022510;28;20053;-71
2022/08/08 11:28:43;;;;;;;6.25;0.85;;;;;;;;;;5014774;28;20431;-71
2022/08/08 11:31:13;;;;;;;1.95;0.70;;;;;;;;;;5020072;28;20087;-69
2022/08/08 11:33:39;;;;;;;1.00;0.70;;;;;;;;;;5027819;28;20037;-70
2022/08/08 11:36:05;;;;;;;1.65;0.70;;;;;;;;;;5019266;28;20026;-70
2022/08/08 11:38:31;;;;;;;1.27;0.80;;;;;;;;;;5019057;28;20033;-70
2022/08/08 11:40:57;;;;;;;1.00;0.73;;;;;;;;;;5018326;28;20112;-70
2022/08/08 11:43:27;;;;;;;1.77;0.60;;;;;;;;;;5030132;28;20478;-70
2022/08/08 11:45:52;;;;;;;1.15;0.70;;;;;;;;;;5014114;28;20263;-70
2022/08/08 11:48:18;;;;;;;1.33;0.80;;;;;;;;;;4998122;28;20029;-70
2022/08/08 11:50:45;;;;;;;2.80;1.00;;;;;;;;;;5015163;28;20033;-70
2022/08/08 11:53:11;;;;;;;0.85;0.70;;;;;;;;;;5012265;28;20022;-70
2022/08/08 11:55:50;;;;;;;1.23;0.77;;;;;;;;;;5025472;28;20347;-70
2022/08/08 11:58:16;;;;;;;1.63;1.15;;;;;;;;;;5032611;28;20052;-69
2022/08/08 12:00:46;;;;;;;2.30;0.70;;;;;;;;;;5014214;28;20371;-69
2022/08/08 12:03:17;;;;;;;2.53;0.70;;;;;;;;;;5019405;28;20033;-71
2022/08/08 12:05:44;;;;;;;1.67;0.70;;;;;;;;;;5019340;28;20400;-68
2022/08/08 12:08:10;;;;;;;1.85;0.70;;;;;;;;;;5018717;28;20029;-68
2022/08/08 12:10:48;;;;;;;2.13;0.80;;;;;;;;;;5002083;28;20021;-70
2022/08/08 12:13:20;;;;;;;1.77;0.80;;;;;;;;;;5013580;28;20026;-70
2022/08/08 12:15:48;;;;;;;3.05;0.82;;;;;;;;;;5027810;28;20547;-71
2022/08/08 12:18:23;;;;;;;1.50;0.70;;;;;;;;;;5018794;28;20029;-69
2022/08/08 12:20:50;;;;;;;1.45;0.85;;;;;;;;;;5019252;28;20190;-71
2022/08/08 12:23:32;;;;;;;2.63;0.82;;;;;;;;;;5019656;28;20442;-69
2022/08/08 12:26:09;;;;;;;1.48;1.00;;;;;;;;;;5017819;28;20151;-70
2022/08/08 12:28:34;;;;;;;1.73;0.70;;;;;;;;;;5014857;28;20299;-68
2022/08/08 12:31:07;;;;;;;2.55;0.88;;;;;;;;;;5013151;28;20827;-69
2022/08/08 12:33:33;;;;;;;0.90;0.90;;;;;;;;;;5007765;28;20033;-70
2022/08/08 12:36:12;;;;;;;2.80;0.82;;;;;;;;;;5021538;28;20200;-69
2022/08/08 12:38:51;;;;;;;1.40;0.80;;;;;;;;;;5014940;28;20079;-70
2022/08/08 12:41:21;;;;;;;2.72;0.90;;;;;;;;;;5022299;28;20322;-70
2022/08/08 12:43:47;;;;;;;1.20;0.80;;;;;;;;;;5017701;28;20569;-71
2022/08/08 12:46:17;;;;;;;2.22;0.80;;;;;;;;;;5021073;28;20072;-74
2022/08/08 12:48:57;;;;;;;2.55;0.90;;;;;;;;;;5021170;28;20104;-70
2022/08/08 12:51:22;;;;;;;1.90;0.93;;;;;;;;;;5014037;28;20029;-70
2022/08/08 12:53:57;;;;;;;2.95;0.80;;;;;;;;;;5021411;28;20411;-70
2022/08/08 12:56:35;;;;;;;3.17;0.90;;;;;;;;;;5012353;28;20549;-70
2022/08/08 12:59:11;;;;;;;1.83;0.70;;;;;;;;;;5024827;28;20063;-72
2022/08/08 13:01:37;;;;;;;1.50;0.80;;;;;;;;;;5006312;28;20097;-69
2022/08/08 13:04:13;;;;;;;1.33;0.90;;;;;;;;;;5009354;28;20061;-69
2022/08/08 13:06:38;;;;;;;1.45;0.80;;;;;;;;;;5018617;28;20200;-73
2022/08/08 13:09:08;;;;;;;1.73;0.80;;;;;;;;;;5021329;28;20108;-72
2022/08/08 13:11:37;;;;;;;1.55;0.88;;;;;;;;;;5007144;28;20231;-69
2022/08/08 13:14:02;;;;;;;1.80;0.80;;;;;;;;;;5019262;28;20032;-69
2022/08/08 13:16:30;;;;;;;1.75;0.65;;;;;;;;;;5036593;28;20036;-70
2022/08/08 13:18:57;;;;;;;1.38;0.80;;;;;;;;;;5043743;28;20517;-70
2022/08/08 13:21:22;;;;;;;2.47;0.80;;;;;;;;;;5009408;28;20132;-70
2022/08/08 13:23:48;;;;;;;2.65;0.80;;;;;;;;;;5005307;28;20109;-71
2022/08/08 13:26:13;;;;;;;2.00;0.80;;;;;;;;;;5022964;28;20032;-69
2022/08/08 13:28:38;;;;;;;1.40;0.93;;;;;;;;;;5031330;28;20048;-71
2022/08/08 13:31:04;;;;;;;1.50;0.73;;;;;;;;;;5024801;28;20697;-70
2022/08/08 13:33:30;;;;;;;3.40;0.70;;;;;;;;;;5023316;28;20620;-71
2022/08/08 13:35:56;;;;;;;1.42;0.77;;;;;;;;;;5020447;28;20112;-71
2022/08/08 13:38:22;;;;;;;3.50;0.82;;;;;;;;;;5020239;28;20402;-69
2022/08/08 13:40:47;;;;;;;0.82;0.70;;;;;;;;;;5022551;28;20062;-72
2022/08/08 13:43:17;;;;;;;2.88;1.38;;;;;;;;;;5019797;28;20103;-70
2022/08/08 13:45:43;;;;;;;2.38;0.93;;;;;;;;;;5037241;28;20297;-70
2022/08/08 13:48:12;;;;;;;2.17;0.80;;;;;;;;;;5005002;28;20037;-70
2022/08/08 13:50:44;;;;;;;2.63;0.70;;;;;;;;;;5008501;28;20085;-71
2022/08/08 13:53:10;;;;;;;1.90;1.00;;;;;;;;;;5018277;28;20029;-70
2022/08/08 13:55:36;;;;;;;2.83;0.80;;;;;;;;;;5012413;28;20656;-70
2022/08/08 13:58:02;;;;;;;1.30;0.70;;;;;;;;;;5031306;28;20090;-69
2022/08/08 14:00:27;;;;;;;1.80;1.00;;;;;;;;;;5023309;28;20033;-71
2022/08/08 14:03:00;;;;;;;0.70;0.70;;;;;;;;;;5023638;28;20087;-70
2022/08/08 14:05:27;;;;;;;0.90;0.80;;;;;;;;;;5021198;28;20287;-70
2022/08/08 14:07:52;;;;;;;1.33;1.00;;;;;;;;;;5021340;28;20519;-69
2022/08/08 14:10:21;;;;;;;2.13;0.90;;;;;;;;;;5024619;28;20032;-70
2022/08/08 14:12:47;;;;;;;2.00;0.85;;;;;;;;;;5027970;28;20530;-69
2022/08/08 14:15:33;;;;;;;1.77;0.80;;;;;;;;;;5038820;28;20032;-72
2022/08/08 14:18:00;;;;;;;3.35;0.98;;;;;;;;;;5020733;28;20033;-72
2022/08/08 14:20:37;;;;;;;3.65;0.80;;;;;;;;;;5019443;28;20029;-72
2022/08/08 14:23:14;;;;;;;1.02;0.70;;;;;;;;;;5019874;28;20558;-71
2022/08/08 14:25:45;;;;;;;0.80;0.80;;;;;;;;;;5006931;28;20042;-71
2022/08/08 14:28:10;;;;;;;1.50;0.80;;;;;;;;;;5019693;28;20633;-70
2022/08/08 14:30:35;;;;;;;1.33;0.75;;;;;;;;;;5030881;28;20067;-70
2022/08/08 14:33:03;;;;;;;1.35;0.70;;;;;;;;;;5009728;28;20068;-70
2022/08/08 14:35:29;;;;;;;1.13;0.90;;;;;;;;;;5017894;28;20055;-73
2022/08/08 14:37:59;;;;;;;2.35;1.25;;;;;;;;;;5021182;28;20053;-71
2022/08/08 14:40:26;;;;;;;0.70;0.60;;;;;;;;;;5020118;28;20033;-72
2022/08/08 14:42:53;;;;;;;2.20;0.88;;;;;;;;;;5009465;28;20022;-70
2022/08/08 14:45:19;;;;;;;2.03;0.80;;;;;;;;;;5017910;28;20038;-72
2022/08/08 14:47:51;;;;;;;1.13;0.70;;;;;;;;;;5020068;28;20056;-70
2022/08/08 14:50:21;;;;;;;1.52;0.70;;;;;;;;;;5013708;28;20117;-71
2022/08/08 14:52:58;;;;;;;1.80;0.90;;;;;;;;;;5023703;28;20029;-74
2022/08/08 14:55:26;;;;;;;3.38;0.95;;;;;;;;;;5018546;28;20562;-73
2022/08/08 14:57:52;;;;;;;1.02;0.88;;;;;;;;;;5033770;28;20032;-71
2022/08/08 15:00:18;;;;;;;1.48;0.85;;;;;;;;;;5014102;28;20038;-71
2022/08/08 15:02:46;;;;;;;2.88;0.93;;;;;;;;;;5024065;28;20625;-71
2022/08/08 15:05:12;;;;;;;0.77;0.70;;;;;;;;;;5019881;28;20510;-72
2022/08/08 15:07:39;;;;;;;1.02;0.90;;;;;;;;;;5027274;28;20029;-71
2022/08/08 15:10:04;;;;;;;0.70;0.70;;;;;;;;;;5029940;28;20064;-73
2022/08/08 15:12:30;;;;;;;3.33;1.02;;;;;;;;;;5038020;28;20076;-75
2022/08/08 15:14:55;;;;;;;0.80;0.70;;;;;;;;;;5046694;28;20028;-71
2022/08/08 15:17:21;;;;;;;0.65;0.65;;;;;;;;;;5039243;28;20036;-72